West Fork, AR

3:12 PM CDT on August 04, 2015 (GMT -0500)
Hutch Mountain | | Change Station
CLOSE
Current Station
Personal Weather Station
Location: West Fork, AR
Elevation: 2211 ft
Nearby Weather Stations

Elev 2211 ft 35.91 °N, 94.10 °W | Updated 31 seconds ago

Overcast
Overcast
80.6 °F
Feels Like 85 °F
N
1.9
Wind Variable Wind from East
Gusts 2.2 mph

Today
High -- | Low -- °F
--% Chance of Precip.
Yesterday
High -- | Low -- °F
Precip. -- in
6:26 AM 8:18 PM
Waning Gibbous, 75% visible
Pressure 29.98 in
Visibility 10.0 miles
Clouds Few 3800 ft
Few 9000 ft
Mostly Cloudy 11000 ft
Heat Index 85 °F
Dew Point 72 °F
Humidity 74%
Rainfall 0.00 in
Snow Depth Not available.
UV 6 out of 12
Pollen 5.70 out of 12
Air Quality Not available.
Flu Activity Not available.
METAR KFYV 041953Z 31006KT 10SM FEW038 FEW090 BKN110 28/22 A3002 RMK AO2 SLP151 T02780222

More Conditions Fewer Conditions

Pressure 29.98 in
Visibility 10.0 miles
Clouds Few 3800 ft
Few 9000 ft
Mostly Cloudy 11000 ft
Heat Index 85 °F
Dew Point 72 °F
Humidity 74%
Rainfall 0.00 in
Snow Depth Not available.
UV 6 out of 12
Pollen 5.70 out of 12
Air Quality Not available.
Flu Activity Not available.
METAR KFYV 041953Z 31006KT 10SM FEW038 FEW090 BKN110 28/22 A3002 RMK AO2 SLP151 T02780222

More Conditions Fewer Conditions

Nowcast | as of 3:11 PM CDT on August 4, 2015

at 3:05 PM...National Weather Service Doppler radar detected very light widely scattered showers moving toward the east across eastern Oklahoma and western Arkansas. Through 5:00 PM... scattered light rain shower are expected to continue moving eastward across the area. Little additional rainfall is anticipated.

×

10-Day Weather Forecast

×

Almanac

Astronomy

Aug. 04, 2015 Rise Set
Actual Time
Civil Twilight
Nautical Twilight
Astronomical Twilight
Moon
Length of Visible Light
Length of Day
Tomorrow will be .
, % of the Moon is Illuminated

Today's Extremes

State Highs State Lows

Community

WunderPhotos

Upload Photos

1,843,962 photos uploaded!

WunderBlogs® & News

Nearby

Air Quality

  Air Quality AQ Index Pollutant
Not available.

Snow Depth

Station Depth Elevation

Earthquake Activity

City Distance Mag. Time & Date
Minimum magnitude displayed is 2.5.

Coastal Water Temperatures

Place Temperature

Stations

Nearby Weather Stations

Station Location Temp. Windchill Dew Point Humidity Wind Precip. Elev Updated Type